sensor_id;sensor_type;location;lat;lon;timestamp;pressure;altitude;pressure_sealevel;temperature;humidity
5595;BME280;1003;48.002;7.788;2023-04-01T00:00:47;98409.75;;;8.59;100.00
5595;BME280;1003;48.002;7.788;2023-04-01T00:03:14;98414.00;;;8.56;100.00
5595;BME280;1003;48.002;7.788;2023-04-01T00:05:42;98398.38;;;8.34;100.00
5595;BME280;1003;48.002;7.788;2023-04-01T00:08:09;98380.13;;;8.27;100.00
5595;BME280;1003;48.002;7.788;2023-04-01T00:10:36;98379.41;;;8.21;100.00
5595;BME280;1003;48.002;7.788;2023-04-01T00:13:03;98358.63;;;8.12;100.00
5595;BME280;1003;48.002;7.788;2023-04-01T00:15:32;98356.22;;;8.08;100.00
5595;BME280;1003;48.002;7.788;2023-04-01T00:17:59;98348.78;;;8.03;100.00
5595;BME280;1003;48.002;7.788;2023-04-01T00:20:28;98338.03;;;7.97;100.00
5595;BME280;1003;48.002;7.788;2023-04-01T00:22:55;98340.38;;;8.07;100.00
5595;BME280;1003;48.002;7.788;2023-04-01T00:25:23;98321.34;;;7.97;100.00
5595;BME280;1003;48.002;7.788;2023-04-01T00:27:50;98315.53;;;7.94;100.00
5595;BME280;1003;48.002;7.788;2023-04-01T00:30:18;98318.88;;;7.93;100.00
5595;BME280;1003;48.002;7.788;2023-04-01T00:32:46;98312.22;;;7.90;100.00
5595;BME280;1003;48.002;7.788;2023-04-01T00:35:13;98317.25;;;7.90;100.00
5595;BME280;1003;48.002;7.788;2023-04-01T00:37:40;98313.16;;;7.84;100.00
5595;BME280;1003;48.002;7.788;2023-04-01T00:40:22;98328.13;;;7.87;100.00
5595;BME280;1003;48.002;7.788;2023-04-01T00:42:50;98329.63;;;7.99;100.00
5595;BME280;1003;48.002;7.788;2023-04-01T00:45:34;98325.47;;;7.98;100.00
5595;BME280;1003;48.002;7.788;2023-04-01T00:48:09;98325.44;;;8.03;100.00
5595;BME280;1003;48.002;7.788;2023-04-01T00:50:40;98325.44;;;8.00;100.00
5595;BME280;1003;48.002;7.788;2023-04-01T00:53:10;98324.53;;;8.05;100.00
5595;BME280;1003;48.002;7.788;2023-04-01T00:55:46;98318.66;;;8.09;100.00
5595;BME280;1003;48.002;7.788;2023-04-01T00:58:18;98326.19;;;8.08;100.00
5595;BME280;1003;48.002;7.788;2023-04-01T01:00:50;98321.91;;;8.14;100.00
5595;BME280;1003;48.002;7.788;2023-04-01T01:03:19;98326.03;;;8.17;100.00
5595;BME280;1003;48.002;7.788;2023-04-01T01:06:19;98323.44;;;8.25;100.00
5595;BME280;1003;48.002;7.788;2023-04-01T01:09:21;98328.44;;;8.23;100.00
5595;BME280;1003;48.002;7.788;2023-04-01T01:12:02;98312.63;;;8.21;100.00
5595;BME280;1003;48.002;7.788;2023-04-01T01:14:45;98293.41;;;8.25;100.00
5595;BME280;1003;48.002;7.788;2023-04-01T01:17:32;98290.84;;;8.29;100.00
5595;BME280;1003;48.002;7.788;2023-04-01T01:24:44;98247.53;;;8.24;100.00
5595;BME280;1003;48.002;7.788;2023-04-01T01:27:20;98237.47;;;8.26;100.00
5595;BME280;1003;48.002;7.788;2023-04-01T01:30:20;98210.81;;;8.23;100.00
5595;BME280;1003;48.002;7.788;2023-04-01T01:33:42;98198.22;;;8.28;100.00
5595;BME280;1003;48.002;7.788;2023-04-01T01:36:13;98198.19;;;8.31;100.00
5595;BME280;1003;48.002;7.788;2023-04-01T01:38:41;98201.47;;;8.34;100.00
5595;BME280;1003;48.002;7.788;2023-04-01T01:41:10;98230.59;;;8.41;100.00
5595;BME280;1003;48.002;7.788;2023-04-01T01:43:41;98238.13;;;8.40;100.00
5595;BME280;1003;48.002;7.788;2023-04-01T01:46:13;98233.94;;;8.39;100.00
5595;BME280;1003;48.002;7.788;2023-04-01T01:48:43;98227.31;;;8.36;100.00
5595;BME280;1003;48.002;7.788;2023-04-01T01:51:12;98229.78;;;8.38;100.00
5595;BME280;1003;48.002;7.788;2023-04-01T01:53:39;98230.47;;;8.48;100.00
5595;BME280;1003;48.002;7.788;2023-04-01T01:56:06;98252.75;;;8.63;100.00
5595;BME280;1003;48.002;7.788;2023-04-01T01:58:45;98248.72;;;8.54;100.00
5595;BME280;1003;48.002;7.788;2023-04-01T02:01:18;98259.47;;;8.59;100.00
5595;BME280;1003;48.002;7.788;2023-04-01T02:03:48;98269.56;;;8.56;100.00
5595;BME280;1003;48.002;7.788;2023-04-01T02:06:21;98263.63;;;8.62;100.00
5595;BME280;1003;48.002;7.788;2023-04-01T02:08:52;98271.88;;;8.68;100.00
5595;BME280;1003;48.002;7.788;2023-04-01T02:11:28;98275.97;;;8.71;100.00
5595;BME280;1003;48.002;7.788;2023-04-01T02:14:03;98265.16;;;8.69;100.00
5595;BME280;1003;48.002;7.788;2023-04-01T02:16:36;98267.63;;;8.71;100.00
5595;BME280;1003;48.002;7.788;2023-04-01T02:19:07;98274.16;;;8.81;100.00
5595;BME280;1003;48.002;7.788;2023-04-01T02:21:38;98265.84;;;8.79;100.00
5595;BME280;1003;48.002;7.788;2023-04-01T02:24:12;98264.19;;;8.76;100.00
5595;BME280;1003;48.002;7.788;2023-04-01T02:26:41;98250.09;;;8.71;100.00
5595;BME280;1003;48.002;7.788;2023-04-01T02:29:11;98240.94;;;8.70;100.00
5595;BME280;1003;48.002;7.788;2023-04-01T02:31:39;98231.81;;;8.65;100.00
5595;BME280;1003;48.002;7.788;2023-04-01T02:34:07;98210.28;;;8.57;100.00
5595;BME280;1003;48.002;7.788;2023-04-01T02:36:37;98205.28;;;8.55;100.00
5595;BME280;1003;48.002;7.788;2023-04-01T02:39:05;98207.97;;;8.46;100.00
5595;BME280;1003;48.002;7.788;2023-04-01T02:41:39;98206.28;;;8.47;100.00
5595;BME280;1003;48.002;7.788;2023-04-01T02:44:07;98220.53;;;8.43;100.00
5595;BME280;1003;48.002;7.788;2023-04-01T02:46:34;98211.38;;;8.42;100.00
5595;BME280;1003;48.002;7.788;2023-04-01T02:49:01;98209.72;;;8.41;100.00
5595;BME280;1003;48.002;7.788;2023-04-01T02:51:28;98201.47;;;8.34;100.00
5595;BME280;1003;48.002;7.788;2023-04-01T02:53:57;98204.03;;;8.30;100.00
5595;BME280;1003;48.002;7.788;2023-04-01T02:56:24;98197.41;;;8.29;100.00
5595;BME280;1003;48.002;7.788;2023-04-01T02:58:51;98189.97;;;8.24;100.00
5595;BME280;1003;48.002;7.788;2023-04-01T03:01:19;98188.34;;;8.20;100.00
5595;BME280;1003;48.002;7.788;2023-04-01T03:03:47;98184.19;;;8.19;100.00
5595;BME280;1003;48.002;7.788;2023-04-01T03:06:16;98175.88;;;8.17;100.00
5595;BME280;1003;48.002;7.788;2023-04-01T03:08:44;98170.88;;;8.19;100.00
5595;BME280;1003;48.002;7.788;2023-04-01T03:11:13;98186.66;;;8.21;100.00
5595;BME280;1003;48.002;7.788;2023-04-01T03:13:40;98215.81;;;8.25;100.00
5595;BME280;1003;48.002;7.788;2023-04-01T03:16:07;98238.44;;;8.19;100.00
5595;BME280;1003;48.002;7.788;2023-04-01T03:18:34;98263.38;;;8.25;100.00
5595;BME280;1003;48.002;7.788;2023-04-01T03:21:14;98290.88;;;8.26;100.00
5595;BME280;1003;48.002;7.788;2023-04-01T03:23:41;98311.84;;;8.19;100.00
5595;BME280;1003;48.002;7.788;2023-04-01T03:26:08;98320.19;;;8.20;100.00
5595;BME280;1003;48.002;7.788;2023-04-01T03:28:37;98331.06;;;8.15;100.00
5595;BME280;1003;48.002;7.788;2023-04-01T03:31:04;98339.41;;;8.16;100.00
5595;BME280;1003;48.002;7.788;2023-04-01T03:33:31;98337.88;;;8.07;100.00
5595;BME280;1003;48.002;7.788;2023-04-01T03:35:59;98320.59;;;7.89;100.00
5595;BME280;1003;48.002;7.788;2023-04-01T03:38:26;98317.28;;;7.87;100.00
5595;BME280;1003;48.002;7.788;2023-04-01T03:40:53;98297.38;;;7.79;100.00
5595;BME280;1003;48.002;7.788;2023-04-01T03:43:20;98300.69;;;7.81;100.00
5595;BME280;1003;48.002;7.788;2023-04-01T03:45:51;98278.94;;;7.85;100.00
5595;BME280;1003;48.002;7.788;2023-04-01T03:48:20;98256.59;;;7.74;100.00
5595;BME280;1003;48.002;7.788;2023-04-01T03:50:48;98250.94;;;7.61;100.00
5595;BME280;1003;48.002;7.788;2023-04-01T03:53:15;98237.72;;;7.53;100.00
5595;BME280;1003;48.002;7.788;2023-04-01T03:55:42;98246.94;;;7.48;100.00
5595;BME280;1003;48.002;7.788;2023-04-01T03:58:09;98269.38;;;7.54;100.00
5595;BME280;1003;48.002;7.788;2023-04-01T04:00:36;98262.63;;;7.59;100.00
5595;BME280;1003;48.002;7.788;2023-04-01T04:03:06;98265.22;;;7.53;100.00
5595;BME280;1003;48.002;7.788;2023-04-01T04:05:33;98276.75;;;7.62;100.00
5595;BME280;1003;48.002;7.788;2023-04-01T04:08:00;98273.34;;;7.68;100.00
5595;BME280;1003;48.002;7.788;2023-04-01T04:10:27;98275.81;;;7.71;100.00
5595;BME280;1003;48.002;7.788;2023-04-01T04:12:55;98281.63;;;7.73;100.00
5595;BME280;1003;48.002;7.788;2023-04-01T04:15:22;98273.41;;;7.65;100.00
5595;BME280;1003;48.002;7.788;2023-04-01T04:17:50;98274.19;;;7.68;100.00
5595;BME280;1003;48.002;7.788;2023-04-01T04:20:18;98275.84;;;7.68;100.00
5595;BME280;1003;48.002;7.788;2023-04-01T04:22:45;98269.97;;;7.72;100.00
5595;BME280;1003;48.002;7.788;2023-04-01T04:25:12;98271.59;;;7.74;100.00
5595;BME280;1003;48.002;7.788;2023-04-01T04:27:39;98255.81;;;7.69;100.00
5595;BME280;1003;48.002;7.788;2023-04-01T04:30:08;98258.09;;;7.84;100.00
5595;BME280;1003;48.002;7.788;2023-04-01T04:32:35;98233.88;;;7.88;100.00
5595;BME280;1003;48.002;7.788;2023-04-01T04:35:03;98227.25;;;7.85;100.00
5595;BME280;1003;48.002;7.788;2023-04-01T04:37:33;98214.78;;;7.82;100.00
5595;BME280;1003;48.002;7.788;2023-04-01T04:40:00;98218.09;;;7.86;100.00
5595;BME280;1003;48.002;7.788;2023-04-01T04:42:27;98213.78;;;7.94;100.00
5595;BME280;1003;48.002;7.788;2023-04-01T04:44:54;98221.34;;;7.89;100.00
5595;BME280;1003;48.002;7.788;2023-04-01T04:47:21;98222.00;;;8.01;100.00
5595;BME280;1003;48.002;7.788;2023-04-01T04:49:48;98212.00;;;8.01;100.00
5595;BME280;1003;48.002;7.788;2023-04-01T04:52:15;98213.72;;;7.99;100.00
5595;BME280;1003;48.002;7.788;2023-04-01T04:54:44;98215.44;;;7.97;100.00
5595;BME280;1003;48.002;7.788;2023-04-01T04:57:11;98209.44;;;8.05;100.00
5595;BME280;1003;48.002;7.788;2023-04-01T04:59:38;98210.19;;;8.10;100.00
5595;BME280;1003;48.002;7.788;2023-04-01T05:02:05;98210.25;;;8.07;100.00
5595;BME280;1003;48.002;7.788;2023-04-01T05:04:35;98196.84;;;8.10;100.00
5595;BME280;1003;48.002;7.788;2023-04-01T05:07:02;98185.88;;;8.19;100.00
5595;BME280;1003;48.002;7.788;2023-04-01T05:09:29;98170.00;;;8.20;100.00
5595;BME280;1003;48.002;7.788;2023-04-01T05:11:59;98142.44;;;8.21;100.00
5595;BME280;1003;48.002;7.788;2023-04-01T05:14:26;98128.25;;;8.22;100.00
5595;BME280;1003;48.002;7.788;2023-04-01T05:16:53;98125.63;;;8.29;100.00
5595;BME280;1003;48.002;7.788;2023-04-01T05:19:20;98115.50;;;8.37;100.00
5595;BME280;1003;48.002;7.788;2023-04-01T05:21:47;98095.34;;;8.43;100.00
5595;BME280;1003;48.002;7.788;2023-04-01T05:24:14;98085.22;;;8.49;100.00
5595;BME280;1003;48.002;7.788;2023-04-01T05:26:41;98079.25;;;8.56;100.00
5595;BME280;1003;48.002;7.788;2023-04-01T05:29:10;98087.66;;;8.52;100.00
5595;BME280;1003;48.002;7.788;2023-04-01T05:31:37;98089.34;;;8.52;100.00
5595;BME280;1003;48.002;7.788;2023-04-01T05:34:04;98089.50;;;8.43;100.00
5595;BME280;1003;48.002;7.788;2023-04-01T05:36:31;98092.78;;;8.46;100.00
5595;BME280;1003;48.002;7.788;2023-04-01T05:38:58;98102.72;;;8.49;100.00
5595;BME280;1003;48.002;7.788;2023-04-01T05:41:25;98099.31;;;8.53;100.00
5595;BME280;1003;48.002;7.788;2023-04-01T05:43:52;98104.16;;;8.62;100.00
5595;BME280;1003;48.002;7.788;2023-04-01T05:46:20;98103.25;;;8.65;100.00
5595;BME280;1003;48.002;7.788;2023-04-01T05:48:47;98100.69;;;8.70;100.00
5595;BME280;1003;48.002;7.788;2023-04-01T05:51:15;98102.22;;;8.75;100.00
5595;BME280;1003;48.002;7.788;2023-04-01T05:53:43;98107.19;;;8.78;100.00
5595;BME280;1003;48.002;7.788;2023-04-01T05:56:10;98106.19;;;8.85;100.00
5595;BME280;1003;48.002;7.788;2023-04-01T05:58:38;98085.38;;;8.82;100.00
5595;BME280;1003;48.002;7.788;2023-04-01T06:01:08;98101.88;;;8.93;100.00
5595;BME280;1003;48.002;7.788;2023-04-01T06:03:37;98096.03;;;8.91;100.00
5595;BME280;1003;48.002;7.788;2023-04-01T06:06:10;98100.09;;;8.99;100.00
5595;BME280;1003;48.002;7.788;2023-04-01T06:08:41;98107.63;;;8.99;100.00
5595;BME280;1003;48.002;7.788;2023-04-01T06:11:22;98103.22;;;9.08;100.00
5595;BME280;1003;48.002;7.788;2023-04-01T06:14:18;98119.00;;;9.12;100.00
5595;BME280;1003;48.002;7.788;2023-04-01T06:17:06;98109.72;;;9.17;100.00
5595;BME280;1003;48.002;7.788;2023-04-01T06:19:47;98115.56;;;9.17;100.00
5595;BME280;1003;48.002;7.788;2023-04-01T06:22:50;98117.00;;;9.28;100.00
5595;BME280;1003;48.002;7.788;2023-04-01T06:25:50;98112.75;;;9.31;100.00
5595;BME280;1003;48.002;7.788;2023-04-01T06:28:48;98106.06;;;9.32;100.00
5595;BME280;1003;48.002;7.788;2023-04-01T06:31:38;98105.16;;;9.34;100.00
5595;BME280;1003;48.002;7.788;2023-04-01T06:34:37;98086.81;;;9.31;100.00
5595;BME280;1003;48.002;7.788;2023-04-01T06:37:36;98090.06;;;9.36;100.00
5595;BME280;1003;48.002;7.788;2023-04-01T06:40:48;98084.06;;;9.41;100.00
5595;BME280;1003;48.002;7.788;2023-04-01T06:43:38;98075.69;;;9.44;100.00
5595;BME280;1003;48.002;7.788;2023-04-01T06:46:17;98090.97;;;9.69;100.00
5595;BME280;1003;48.002;7.788;2023-04-01T06:49:07;98088.38;;;9.72;100.00
5595;BME280;1003;48.002;7.788;2023-04-01T06:51:48;98092.56;;;9.71;100.00
5595;BME280;1003;48.002;7.788;2023-04-01T06:54:26;98102.16;;;9.90;100.00
5595;BME280;1003;48.002;7.788;2023-04-01T06:57:02;98100.72;;;9.81;100.00
5595;BME280;1003;48.002;7.788;2023-04-01T06:59:35;98093.06;;;9.86;100.00
5595;BME280;1003;48.002;7.788;2023-04-01T07:02:16;98104.59;;;9.93;100.00
5595;BME280;1003;48.002;7.788;2023-04-01T07:04:50;98112.47;;;10.13;100.00
5595;BME280;1003;48.002;7.788;2023-04-01T07:07:30;98107.56;;;10.09;100.00
5595;BME280;1003;48.002;7.788;2023-04-01T07:10:04;98110.94;;;10.06;100.00
5595;BME280;1003;48.002;7.788;2023-04-01T07:12:43;98115.00;;;10.12;100.00
5595;BME280;1003;48.002;7.788;2023-04-01T07:15:19;98118.59;;;10.36;100.00
5595;BME280;1003;48.002;7.788;2023-04-01T07:17:53;98123.63;;;10.67;100.00
5595;BME280;1003;48.002;7.788;2023-04-01T07:20:26;98122.94;;;10.62;100.00
5595;BME280;1003;48.002;7.788;2023-04-01T07:22:59;98124.34;;;10.70;100.00
5595;BME280;1003;48.002;7.788;2023-04-01T07:25:31;98124.03;;;10.83;100.00
5595;BME280;1003;48.002;7.788;2023-04-01T07:28:05;98129.31;;;10.73;100.00
5595;BME280;1003;48.002;7.788;2023-04-01T07:30:47;98129.94;;;10.80;100.00
5595;BME280;1003;48.002;7.788;2023-04-01T07:33:22;98107.91;;;10.60;100.00
5595;BME280;1003;48.002;7.788;2023-04-01T07:35:59;98134.56;;;10.66;100.00
5595;BME280;1003;48.002;7.788;2023-04-01T07:38:44;98133.16;;;10.54;100.00
5595;BME280;1003;48.002;7.788;2023-04-01T07:41:29;98157.22;;;10.32;100.00
5595;BME280;1003;48.002;7.788;2023-04-01T07:44:11;98158.72;;;10.37;100.00
5595;BME280;1003;48.002;7.788;2023-04-01T07:46:59;98175.44;;;10.40;100.00
5595;BME280;1003;48.002;7.788;2023-04-01T07:49:43;98178.75;;;10.40;100.00
5595;BME280;1003;48.002;7.788;2023-04-01T07:52:24;98172.13;;;10.38;100.00
5595;BME280;1003;48.002;7.788;2023-04-01T07:55:06;98181.97;;;10.45;100.00
5595;BME280;1003;48.002;7.788;2023-04-01T07:57:42;98171.84;;;10.48;100.00
5595;BME280;1003;48.002;7.788;2023-04-01T08:00:18;98182.84;;;10.44;100.00
5595;BME280;1003;48.002;7.788;2023-04-01T08:03:14;98178.59;;;10.46;100.00
5595;BME280;1003;48.002;7.788;2023-04-01T08:05:53;98178.22;;;10.62;100.00
5595;BME280;1003;48.002;7.788;2023-04-01T08:08:36;98172.31;;;10.63;100.00
5595;BME280;1003;48.002;7.788;2023-04-01T08:11:22;98170.66;;;10.62;100.00
5595;BME280;1003;48.002;7.788;2023-04-01T08:14:00;98187.31;;;10.66;100.00
5595;BME280;1003;48.002;7.788;2023-04-01T08:16:38;98180.84;;;10.57;100.00
5595;BME280;1003;48.002;7.788;2023-04-01T08:19:22;98172.47;;;10.57;100.00
5595;BME280;1003;48.002;7.788;2023-04-01T08:22:02;98187.63;;;10.54;100.00
5595;BME280;1003;48.002;7.788;2023-04-01T08:24:39;98182.47;;;10.58;100.00
5595;BME280;1003;48.002;7.788;2023-04-01T08:27:20;98189.03;;;10.64;100.00
5595;BME280;1003;48.002;7.788;2023-04-01T08:29:54;98194.53;;;10.78;100.00
5595;BME280;1003;48.002;7.788;2023-04-01T08:32:29;98198.22;;;10.96;100.00
5595;BME280;1003;48.002;7.788;2023-04-01T08:35:11;98185.41;;;11.05;100.00
5595;BME280;1003;48.002;7.788;2023-04-01T08:37:43;98188.44;;;11.16;100.00
5595;BME280;1003;48.002;7.788;2023-04-01T08:40:37;98195.09;;;11.17;100.00
5595;BME280;1003;48.002;7.788;2023-04-01T08:43:23;98176.47;;;10.95;100.00
5595;BME280;1003;48.002;7.788;2023-04-01T08:46:20;98190.03;;;11.19;100.00
5595;BME280;1003;48.002;7.788;2023-04-01T08:49:25;98186.44;;;11.55;100.00
5595;BME280;1003;48.002;7.788;2023-04-01T08:52:34;98177.19;;;11.56;100.00
5595;BME280;1003;48.002;7.788;2023-04-01T08:55:27;98184.66;;;11.59;100.00
5595;BME280;1003;48.002;7.788;2023-04-01T09:01:13;98191.84;;;11.71;100.00
5595;BME280;1003;48.002;7.788;2023-04-01T09:04:13;98188.31;;;11.49;100.00
5595;BME280;1003;48.002;7.788;2023-04-01T09:07:06;98189.56;;;11.64;100.00
5595;BME280;1003;48.002;7.788;2023-04-01T09:10:08;98191.22;;;11.35;100.00
5595;BME280;1003;48.002;7.788;2023-04-01T09:12:54;98182.22;;;11.56;100.00
5595;BME280;1003;48.002;7.788;2023-04-01T09:15:57;98190.03;;;11.48;100.00
5595;BME280;1003;48.002;7.788;2023-04-01T09:19:05;98189.88;;;11.53;100.00
5595;BME280;1003;48.002;7.788;2023-04-01T09:21:58;98169.31;;;11.67;100.00
5595;BME280;1003;48.002;7.788;2023-04-01T09:24:56;98182.88;;;11.63;100.00
5595;BME280;1003;48.002;7.788;2023-04-01T09:27:29;98183.78;;;11.60;100.00
5595;BME280;1003;48.002;7.788;2023-04-01T09:30:31;98180.03;;;11.73;100.00
5595;BME280;1003;48.002;7.788;2023-04-01T09:33:42;98185.06;;;11.73;100.00
5595;BME280;1003;48.002;7.788;2023-04-01T09:36:33;98185.97;;;11.99;100.00
5595;BME280;1003;48.002;7.788;2023-04-01T09:39:30;98180.72;;;12.05;100.00
5595;BME280;1003;48.002;7.788;2023-04-01T09:42:33;98189.69;;;12.14;100.00
5595;BME280;1003;48.002;7.788;2023-04-01T09:45:25;98173.22;;;12.03;100.00
5595;BME280;1003;48.002;7.788;2023-04-01T09:48:17;98186.34;;;11.87;100.00
5595;BME280;1003;48.002;7.788;2023-04-01T09:50:57;98189.47;;;11.95;100.00
5595;BME280;1003;48.002;7.788;2023-04-01T09:53:44;98191.13;;;11.96;100.00
5595;BME280;1003;48.002;7.788;2023-04-01T09:59:58;98198.00;;;11.91;100.00
5595;BME280;1003;48.002;7.788;2023-04-01T10:06:33;98194.47;;;11.96;100.00
5595;BME280;1003;48.002;7.788;2023-04-01T10:09:57;98202.97;;;12.19;100.00
5595;BME280;1003;48.002;7.788;2023-04-01T10:13:11;98198.53;;;12.00;100.00
5595;BME280;1003;48.002;7.788;2023-04-01T10:16:03;98184.97;;;11.76;100.00
5595;BME280;1003;48.002;7.788;2023-04-01T10:22:28;98204.59;;;11.95;100.00
5595;BME280;1003;48.002;7.788;2023-04-01T10:25:24;98208.81;;;12.19;100.00
5595;BME280;1003;48.002;7.788;2023-04-01T10:28:32;98196.38;;;11.88;100.00
5595;BME280;1003;48.002;7.788;2023-04-01T10:31:45;98210.81;;;12.09;100.00
5595;BME280;1003;48.002;7.788;2023-04-01T10:34:54;98202.81;;;12.23;100.00
5595;BME280;1003;48.002;7.788;2023-04-01T10:38:02;98200.72;;;12.36;100.00
5595;BME280;1003;48.002;7.788;2023-04-01T10:41:22;98199.16;;;12.32;100.00
5595;BME280;1003;48.002;7.788;2023-04-01T10:44:29;98197.97;;;12.44;100.00
5595;BME280;1003;48.002;7.788;2023-04-01T10:47:39;98184.47;;;12.45;100.00
5595;BME280;1003;48.002;7.788;2023-04-01T10:50:43;98190.53;;;12.64;100.00
5595;BME280;1003;48.002;7.788;2023-04-01T10:53:38;98194.22;;;12.79;100.00
5595;BME280;1003;48.002;7.788;2023-04-01T10:56:34;98181.59;;;12.55;100.00
5595;BME280;1003;48.002;7.788;2023-04-01T11:00:12;98174.31;;;12.95;100.00
5595;BME280;1003;48.002;7.788;2023-04-01T11:07:31;98167.50;;;12.97;100.00
5595;BME280;1003;48.002;7.788;2023-04-01T11:14:44;98183.81;;;12.40;100.00
5595;BME280;1003;48.002;7.788;2023-04-01T11:21:27;98192.72;;;12.50;100.00
5595;BME280;1003;48.002;7.788;2023-04-01T11:24:38;98184.31;;;12.24;100.00
5595;BME280;1003;48.002;7.788;2023-04-01T11:27:42;98191.47;;;12.10;100.00
5595;BME280;1003;48.002;7.788;2023-04-01T11:30:28;98198.81;;;12.18;100.00
5595;BME280;1003;48.002;7.788;2023-04-01T11:33:05;98191.44;;;12.37;100.00
5595;BME280;1003;48.002;7.788;2023-04-01T11:35:56;98189.47;;;11.95;100.00
5595;BME280;1003;48.002;7.788;2023-04-01T11:38:53;98192.00;;;11.95;100.00
5595;BME280;1003;48.002;7.788;2023-04-01T11:41:32;98198.66;;;11.96;100.00
5595;BME280;1003;48.002;7.788;2023-04-01T11:44:16;98183.25;;;11.78;100.00
5595;BME280;1003;48.002;7.788;2023-04-01T11:47:03;98198.66;;;11.96;100.00
5595;BME280;1003;48.002;7.788;2023-04-01T11:49:49;98191.41;;;12.13;100.00
5595;BME280;1003;48.002;7.788;2023-04-01T11:52:47;98193.31;;;12.31;100.00
5595;BME280;1003;48.002;7.788;2023-04-01T11:55:33;98193.16;;;12.36;100.00
5595;BME280;1003;48.002;7.788;2023-04-01T11:58:42;98188.38;;;12.28;100.00
5595;BME280;1003;48.002;7.788;2023-04-01T12:01:27;98181.88;;;12.21;100.00
5595;BME280;1003;48.002;7.788;2023-04-01T12:04:38;98187.22;;;12.12;100.00
5595;BME280;1003;48.002;7.788;2023-04-01T12:07:23;98195.94;;;12.28;100.00
5595;BME280;1003;48.002;7.788;2023-04-01T12:10:05;98192.06;;;12.18;100.00
5595;BME280;1003;48.002;7.788;2023-04-01T12:12:51;98190.56;;;12.13;100.00
5595;BME280;1003;48.002;7.788;2023-04-01T12:15:34;98186.88;;;12.23;100.00
5595;BME280;1003;48.002;7.788;2023-04-01T12:18:17;98188.28;;;12.05;100.00
5595;BME280;1003;48.002;7.788;2023-04-01T12:20:55;98190.63;;;12.11;100.00
5595;BME280;1003;48.002;7.788;2023-04-01T12:23:52;98185.47;;;12.14;100.00
5595;BME280;1003;48.002;7.788;2023-04-01T12:26:52;98183.94;;;12.10;100.00
5595;BME280;1003;48.002;7.788;2023-04-01T12:29:58;98188.22;;;12.33;100.00
5595;BME280;1003;48.002;7.788;2023-04-01T12:32:40;98193.63;;;12.47;100.00
5595;BME280;1003;48.002;7.788;2023-04-01T12:35:21;98181.38;;;12.37;100.00
5595;BME280;1003;48.002;7.788;2023-04-01T12:38:13;98180.41;;;12.41;100.00
5595;BME280;1003;48.002;7.788;2023-04-01T12:41:08;98175.88;;;12.25;100.00
5595;BME280;1003;48.002;7.788;2023-04-01T12:44:07;98175.22;;;12.45;100.00
5595;BME280;1003;48.002;7.788;2023-04-01T12:50:21;98176.53;;;12.30;100.00
5595;BME280;1003;48.002;7.788;2023-04-01T12:53:17;98174.91;;;12.29;100.00
5595;BME280;1003;48.002;7.788;2023-04-01T12:55:51;98173.66;;;12.41;100.00
5595;BME280;1003;48.002;7.788;2023-04-01T12:59:01;98174.84;;;12.31;100.00
5595;BME280;1003;48.002;7.788;2023-04-01T13:02:01;98173.59;;;12.43;100.00
5595;BME280;1003;48.002;7.788;2023-04-01T13:05:09;98184.81;;;12.59;100.00
5595;BME280;1003;48.002;7.788;2023-04-01T13:07:53;98185.75;;;12.56;100.00
5595;BME280;1003;48.002;7.788;2023-04-01T13:10:42;98192.09;;;12.43;100.00
5595;BME280;1003;48.002;7.788;2023-04-01T13:16:18;98196.06;;;12.74;100.00
5595;BME280;1003;48.002;7.788;2023-04-01T13:18:58;98202.66;;;12.78;100.00
5595;BME280;1003;48.002;7.788;2023-04-01T13:21:44;98189.31;;;12.76;100.00
5595;BME280;1003;48.002;7.788;2023-04-01T13:24:35;98189.69;;;12.88;100.00
5595;BME280;1003;48.002;7.788;2023-04-01T13:27:14;98189.97;;;13.04;100.00
5595;BME280;1003;48.002;7.788;2023-04-01T13:29:59;98178.22;;;13.03;100.00
5595;BME280;1003;48.002;7.788;2023-04-01T13:32:40;98175.47;;;13.09;100.00
5595;BME280;1003;48.002;7.788;2023-04-01T13:35:39;98164.00;;;13.01;100.00
5595;BME280;1003;48.002;7.788;2023-04-01T13:38:45;98170.88;;;12.97;100.00
5595;BME280;1003;48.002;7.788;2023-04-01T13:41:29;98163.75;;;13.08;100.00
5595;BME280;1003;48.002;7.788;2023-04-01T13:44:09;98173.63;;;13.14;100.00
5595;BME280;1003;48.002;7.788;2023-04-01T13:47:13;98162.53;;;13.42;100.00
5595;BME280;1003;48.002;7.788;2023-04-01T13:50:37;98166.59;;;13.66;100.00
5595;BME280;1003;48.002;7.788;2023-04-01T13:53:46;98145.06;;;13.80;100.00
5595;BME280;1003;48.002;7.788;2023-04-01T13:56:36;98144.38;;;13.97;100.00
5595;BME280;1003;48.002;7.788;2023-04-01T14:00:00;98139.44;;;14.14;100.00
5595;BME280;1003;48.002;7.788;2023-04-01T14:02:55;98137.06;;;14.11;100.00
5595;BME280;1003;48.002;7.788;2023-04-01T14:05:47;98143.00;;;14.51;100.00
5595;BME280;1003;48.002;7.788;2023-04-01T14:08:33;98133.16;;;15.03;100.00
5595;BME280;1003;48.002;7.788;2023-04-01T14:11:19;98107.50;;;15.28;100.00
5595;BME280;1003;48.002;7.788;2023-04-01T14:14:03;98101.19;;;15.19;100.00
5595;BME280;1003;48.002;7.788;2023-04-01T14:17:07;98100.09;;;15.25;100.00
5595;BME280;1003;48.002;7.788;2023-04-01T14:20:21;98093.41;;;15.41;100.00
5595;BME280;1003;48.002;7.788;2023-04-01T14:23:15;98092.97;;;15.14;100.00
5595;BME280;1003;48.002;7.788;2023-04-01T14:26:10;98096.28;;;14.78;100.00
5595;BME280;1003;48.002;7.788;2023-04-01T14:28:54;98098.91;;;14.37;100.00
5595;BME280;1003;48.002;7.788;2023-04-01T14:31:48;98126.31;;;13.85;100.00
5595;BME280;1003;48.002;7.788;2023-04-01T14:34:40;98149.19;;;13.60;100.00
5595;BME280;1003;48.002;7.788;2023-04-01T14:37:25;98181.47;;;13.30;100.00
5595;BME280;1003;48.002;7.788;2023-04-01T14:40:24;98207.63;;;13.73;100.00
5595;BME280;1003;48.002;7.788;2023-04-01T14:43:18;98216.25;;;13.68;100.00
5595;BME280;1003;48.002;7.788;2023-04-01T14:48:52;98232.28;;;14.10;100.00
5595;BME280;1003;48.002;7.788;2023-04-01T14:51:29;98233.50;;;14.00;100.00
5595;BME280;1003;48.002;7.788;2023-04-01T14:54:06;98235.97;;;14.02;100.00
5595;BME280;1003;48.002;7.788;2023-04-01T14:56:38;98228.00;;;13.90;100.00
5595;BME280;1003;48.002;7.788;2023-04-01T14:59:13;98229.13;;;13.83;100.00
5595;BME280;1003;48.002;7.788;2023-04-01T15:01:50;98226.28;;;13.91;100.00
5595;BME280;1003;48.002;7.788;2023-04-01T15:04:43;98224.41;;;13.96;100.00
5595;BME280;1003;48.002;7.788;2023-04-01T15:07:49;98218.38;;;13.78;100.00
5595;BME280;1003;48.002;7.788;2023-04-01T15:10:53;98222.97;;;14.31;100.00
5595;BME280;1003;48.002;7.788;2023-04-01T15:14:04;98214.97;;;14.22;100.00